Time;durP1;ratioP1;P1;durP2;ratioP2;P2;SDS_P1;SDS_P2;PMS_P1;PMS_P2;Temp;Humidity;BMP_temperature;BMP_pressure;BME280_temperature;BME280_humidity;BME280_pressure;Samples;Min_cycle;Max_cycle;Signal;HPM_P1;HPM_P2
2022/10/23 00:00:10;;;;;;;21.25;7.50;;;;;;;;;;5017576;28;20120;-76
2022/10/23 00:02:56;;;;;;;23.98;7.45;;;;;;;;;;5016576;28;20489;-75
2022/10/23 00:05:22;;;;;;;25.15;7.35;;;;;;;;;;5006418;28;20054;-75
2022/10/23 00:07:50;;;;;;;19.73;7.88;;;;;;;;;;5027797;28;20045;-77
2022/10/23 00:10:17;;;;;;;22.42;7.60;;;;;;;;;;5028510;28;20057;-74
2022/10/23 00:12:43;;;;;;;25.92;8.02;;;;;;;;;;5022107;28;20041;-75
2022/10/23 00:15:09;;;;;;;20.58;8.50;;;;;;;;;;5031860;28;20427;-73
2022/10/23 00:17:35;;;;;;;25.15;8.30;;;;;;;;;;5026384;28;20053;-74
2022/10/23 00:20:01;;;;;;;24.67;8.55;;;;;;;;;;5009298;28;20054;-77
2022/10/23 00:22:26;;;;;;;33.78;8.75;;;;;;;;;;5026521;28;20049;-74
2022/10/23 00:24:52;;;;;;;28.67;9.27;;;;;;;;;;5028488;28;20068;-73
2022/10/23 00:27:18;;;;;;;30.52;9.27;;;;;;;;;;5023592;28;20049;-75
2022/10/23 00:29:44;;;;;;;32.70;9.18;;;;;;;;;;5015719;28;20049;-76
2022/10/23 00:32:10;;;;;;;23.48;8.73;;;;;;;;;;5029243;28;20099;-75
2022/10/23 00:34:36;;;;;;;27.05;9.07;;;;;;;;;;5029361;28;20058;-75
2022/10/23 00:37:02;;;;;;;29.50;9.48;;;;;;;;;;5027256;28;20053;-73
2022/10/23 00:39:28;;;;;;;28.50;9.70;;;;;;;;;;5026019;28;20096;-75
2022/10/23 00:41:54;;;;;;;24.63;9.25;;;;;;;;;;5017357;28;20142;-76
2022/10/23 00:44:20;;;;;;;29.65;9.65;;;;;;;;;;5027125;28;20087;-73
2022/10/23 00:46:45;;;;;;;25.85;8.75;;;;;;;;;;5028360;28;20045;-74
2022/10/23 00:49:12;;;;;;;21.15;8.20;;;;;;;;;;5027148;28;20038;-74
2022/10/23 00:52:06;;;;;;;27.55;7.75;;;;;;;;;;5025195;28;20506;-73
2022/10/23 00:54:35;;;;;;;21.67;8.30;;;;;;;;;;5012867;28;20423;-74
2022/10/23 00:57:04;;;;;;;28.13;8.02;;;;;;;;;;5010902;28;20129;-72
2022/10/23 00:59:31;;;;;;;33.45;8.68;;;;;;;;;;5018385;28;20045;-75
2022/10/23 01:01:58;;;;;;;21.55;8.32;;;;;;;;;;4995963;28;20037;-73
2022/10/23 01:04:25;;;;;;;25.23;8.88;;;;;;;;;;5024827;28;20049;-73
2022/10/23 01:07:18;;;;;;;20.85;8.57;;;;;;;;;;5025578;28;20046;-74
2022/10/23 01:09:47;;;;;;;22.25;8.20;;;;;;;;;;5007283;28;20145;-73
2022/10/23 01:12:44;;;;;;;20.08;8.13;;;;;;;;;;5023170;28;20041;-74
2022/10/23 01:15:15;;;;;;;23.77;8.40;;;;;;;;;;5024469;28;20084;-74
2022/10/23 01:17:59;;;;;;;23.13;7.75;;;;;;;;;;5024822;28;20324;-74
2022/10/23 01:20:37;;;;;;;20.15;8.40;;;;;;;;;;5025267;28;20061;-75
2022/10/23 01:23:24;;;;;;;22.90;8.68;;;;;;;;;;5024513;28;20052;-74
2022/10/23 01:26:31;;;;;;;20.15;8.98;;;;;;;;;;5017111;28;20053;-76
2022/10/23 01:29:22;;;;;;;21.58;8.45;;;;;;;;;;4945953;28;20555;-75
2022/10/23 01:31:55;;;;;;;23.77;8.68;;;;;;;;;;4945528;28;20055;-73
2022/10/23 01:34:59;;;;;;;20.67;8.30;;;;;;;;;;4945339;28;20054;-73
2022/10/23 01:37:57;;;;;;;22.75;8.15;;;;;;;;;;4927081;29;20055;-72
2022/10/23 01:40:29;;;;;;;21.42;8.90;;;;;;;;;;4934516;28;20091;-74
2022/10/23 01:43:00;;;;;;;21.30;8.73;;;;;;;;;;4945610;28;20062;-75
2022/10/23 01:45:50;;;;;;;23.63;8.40;;;;;;;;;;4947726;28;20138;-74
2022/10/23 01:48:22;;;;;;;17.58;7.78;;;;;;;;;;4945677;28;20491;-73
2022/10/23 01:50:49;;;;;;;20.85;8.95;;;;;;;;;;4945040;28;20142;-73
2022/10/23 01:56:45;;;;;;;25.70;8.25;;;;;;;;;;4951145;28;20039;-74
2022/10/23 01:59:20;;;;;;;21.88;7.97;;;;;;;;;;4956771;28;20412;-73
2022/10/23 02:01:49;;;;;;;22.05;8.10;;;;;;;;;;4935456;28;20057;-73
2022/10/23 02:04:22;;;;;;;21.98;8.70;;;;;;;;;;5021563;28;20037;-75
2022/10/23 02:06:49;;;;;;;22.73;8.13;;;;;;;;;;5019869;28;20544;-74
2022/10/23 02:09:15;;;;;;;22.67;7.95;;;;;;;;;;5021592;28;20333;-73
2022/10/23 02:11:53;;;;;;;25.33;7.82;;;;;;;;;;4999686;28;20056;-73
2022/10/23 02:14:42;;;;;;;20.25;8.05;;;;;;;;;;5008174;28;20038;-74
2022/10/23 02:17:20;;;;;;;24.73;7.85;;;;;;;;;;5002683;28;20095;-73
2022/10/23 02:19:54;;;;;;;24.90;8.15;;;;;;;;;;5027556;28;20045;-73
2022/10/23 02:22:30;;;;;;;26.50;7.60;;;;;;;;;;4999891;28;20050;-72
2022/10/23 02:25:18;;;;;;;15.57;6.82;;;;;;;;;;5025652;28;20482;-73
2022/10/23 02:27:48;;;;;;;27.33;7.68;;;;;;;;;;5020049;28;20057;-72
2022/10/23 02:30:18;;;;;;;21.90;7.65;;;;;;;;;;5018705;28;20053;-71
2022/10/23 02:32:47;;;;;;;19.65;7.72;;;;;;;;;;5026224;28;20075;-73
2022/10/23 02:35:14;;;;;;;18.50;7.40;;;;;;;;;;5006041;28;20041;-73
2022/10/23 02:37:40;;;;;;;18.45;7.13;;;;;;;;;;5001490;28;20117;-73
2022/10/23 02:40:09;;;;;;;20.98;6.93;;;;;;;;;;5019931;28;20513;-75
2022/10/23 02:42:44;;;;;;;18.48;6.50;;;;;;;;;;5022979;28;20049;-73
2022/10/23 02:45:36;;;;;;;20.40;7.60;;;;;;;;;;5028242;28;20434;-75
2022/10/23 02:48:22;;;;;;;19.38;7.03;;;;;;;;;;5022072;28;20049;-72
2022/10/23 02:51:02;;;;;;;19.00;6.88;;;;;;;;;;5027881;28;20136;-74
2022/10/23 02:54:21;;;;;;;16.58;6.60;;;;;;;;;;5021213;28;20041;-75
2022/10/23 02:57:02;;;;;;;24.30;7.03;;;;;;;;;;4930905;29;20044;-71
2022/10/23 02:59:43;;;;;;;14.75;7.10;;;;;;;;;;4929400;29;20548;-73
2022/10/23 03:02:19;;;;;;;18.40;6.88;;;;;;;;;;4929786;29;20839;-73
2022/10/23 03:04:46;;;;;;;22.10;6.60;;;;;;;;;;4933207;29;20095;-75
2022/10/23 03:07:13;;;;;;;17.33;6.78;;;;;;;;;;4929945;29;20051;-76
2022/10/23 03:09:39;;;;;;;16.65;6.68;;;;;;;;;;4929544;29;20605;-74
2022/10/23 03:12:06;;;;;;;16.90;6.55;;;;;;;;;;4940305;29;20354;-74
2022/10/23 03:14:31;;;;;;;13.35;6.80;;;;;;;;;;4930500;29;20052;-77
2022/10/23 03:16:57;;;;;;;22.33;6.85;;;;;;;;;;4933963;29;20039;-73
2022/10/23 03:19:23;;;;;;;21.92;6.35;;;;;;;;;;4930446;29;20075;-73
2022/10/23 03:21:49;;;;;;;22.20;6.75;;;;;;;;;;4929312;29;20070;-73
2022/10/23 03:24:15;;;;;;;17.92;7.03;;;;;;;;;;4930843;29;20055;-73
2022/10/23 03:26:41;;;;;;;19.25;7.45;;;;;;;;;;4931663;29;20103;-74
2022/10/23 03:29:06;;;;;;;21.50;6.85;;;;;;;;;;4927725;29;20493;-73
2022/10/23 03:31:32;;;;;;;16.92;6.55;;;;;;;;;;5023630;28;20475;-73
2022/10/23 03:33:58;;;;;;;16.92;6.20;;;;;;;;;;5030876;28;20342;-73
2022/10/23 03:36:24;;;;;;;17.70;7.55;;;;;;;;;;5004831;28;20118;-72
2022/10/23 03:38:50;;;;;;;15.82;6.45;;;;;;;;;;5011078;28;20045;-73
2022/10/23 03:41:17;;;;;;;19.10;6.22;;;;;;;;;;5007039;28;20872;-74
2022/10/23 03:43:42;;;;;;;14.93;6.55;;;;;;;;;;5030087;28;20522;-74
2022/10/23 03:46:11;;;;;;;14.55;6.55;;;;;;;;;;5023313;28;20041;-72
2022/10/23 03:48:38;;;;;;;16.55;5.90;;;;;;;;;;5028328;28;20060;-73
2022/10/23 03:51:05;;;;;;;18.50;6.75;;;;;;;;;;5028282;28;20064;-72
2022/10/23 03:53:31;;;;;;;19.30;7.00;;;;;;;;;;5023476;28;20061;-73
2022/10/23 03:55:57;;;;;;;14.38;5.88;;;;;;;;;;5019131;28;20104;-74
2022/10/23 03:58:23;;;;;;;15.73;5.90;;;;;;;;;;5006900;28;20474;-73
2022/10/23 04:00:49;;;;;;;23.38;6.07;;;;;;;;;;5026771;28;20540;-72
2022/10/23 04:03:15;;;;;;;15.80;6.03;;;;;;;;;;5026642;28;20053;-73
2022/10/23 04:05:41;;;;;;;15.38;5.38;;;;;;;;;;5027293;28;20061;-73
2022/10/23 04:08:07;;;;;;;18.42;6.10;;;;;;;;;;5029355;28;20558;-72
2022/10/23 04:10:33;;;;;;;13.68;6.15;;;;;;;;;;5016770;28;20466;-72
2022/10/23 04:12:59;;;;;;;18.30;6.03;;;;;;;;;;5025391;28;20060;-72
2022/10/23 04:15:25;;;;;;;14.90;5.70;;;;;;;;;;5027355;28;20515;-73
2022/10/23 04:17:51;;;;;;;13.18;6.13;;;;;;;;;;5023494;28;20080;-72
2022/10/23 04:20:17;;;;;;;12.23;6.00;;;;;;;;;;5028343;28;20052;-73
2022/10/23 04:22:43;;;;;;;16.67;6.18;;;;;;;;;;5027138;28;20487;-72
2022/10/23 04:25:09;;;;;;;20.58;6.80;;;;;;;;;;5029081;28;20495;-71
2022/10/23 04:27:35;;;;;;;22.02;6.07;;;;;;;;;;5026040;28;20487;-72
2022/10/23 04:30:02;;;;;;;14.60;5.80;;;;;;;;;;5029506;28;20038;-73
2022/10/23 04:32:28;;;;;;;19.65;6.25;;;;;;;;;;5023991;28;20083;-71
2022/10/23 04:34:54;;;;;;;16.48;5.97;;;;;;;;;;5022434;28;20045;-72
2022/10/23 04:37:20;;;;;;;22.10;6.10;;;;;;;;;;5025165;28;20053;-72
2022/10/23 04:39:46;;;;;;;21.75;7.13;;;;;;;;;;5019684;28;20615;-74
2022/10/23 04:42:13;;;;;;;13.13;5.72;;;;;;;;;;5018895;28;20117;-72
2022/10/23 04:44:39;;;;;;;13.80;5.60;;;;;;;;;;5018094;28;20057;-71
2022/10/23 04:47:04;;;;;;;14.65;5.80;;;;;;;;;;5008042;28;20046;-73
2022/10/23 04:49:30;;;;;;;19.60;5.43;;;;;;;;;;5025657;28;20417;-72
2022/10/23 04:51:56;;;;;;;20.58;7.07;;;;;;;;;;5027210;28;20129;-72
2022/10/23 04:54:22;;;;;;;16.38;5.47;;;;;;;;;;5008692;28;20045;-72
2022/10/23 04:56:48;;;;;;;16.20;6.07;;;;;;;;;;5007020;28;20083;-73
2022/10/23 04:59:14;;;;;;;15.73;5.95;;;;;;;;;;5024106;28;20038;-75
2022/10/23 05:01:40;;;;;;;18.63;6.07;;;;;;;;;;5012630;28;20057;-75
2022/10/23 05:04:06;;;;;;;14.07;5.85;;;;;;;;;;5020972;28;20046;-71
2022/10/23 05:06:32;;;;;;;18.80;6.60;;;;;;;;;;5028113;28;20055;-73
2022/10/23 05:08:57;;;;;;;12.50;5.75;;;;;;;;;;5019591;28;20136;-73
2022/10/23 05:11:23;;;;;;;18.85;6.50;;;;;;;;;;5013533;28;20054;-73
2022/10/23 05:13:49;;;;;;;21.20;6.25;;;;;;;;;;5021682;28;20580;-73
2022/10/23 05:16:31;;;;;;;14.43;5.47;;;;;;;;;;5021172;28;20124;-74
2022/10/23 05:18:58;;;;;;;14.98;5.57;;;;;;;;;;5022274;28;20050;-74
2022/10/23 05:21:28;;;;;;;15.85;5.50;;;;;;;;;;5017963;28;20037;-73
2022/10/23 05:23:54;;;;;;;12.10;5.03;;;;;;;;;;5013813;28;20124;-72
2022/10/23 05:26:21;;;;;;;14.85;5.57;;;;;;;;;;5007002;28;20134;-73
2022/10/23 05:28:47;;;;;;;16.98;5.35;;;;;;;;;;5018411;28;20136;-73
2022/10/23 05:31:14;;;;;;;14.00;4.93;;;;;;;;;;5023597;28;20038;-74
2022/10/23 05:33:40;;;;;;;13.27;5.38;;;;;;;;;;5020369;28;20092;-74
2022/10/23 05:36:07;;;;;;;19.73;5.43;;;;;;;;;;5017384;28;20058;-72
2022/10/23 05:38:34;;;;;;;11.50;5.20;;;;;;;;;;5024477;28;20124;-72
2022/10/23 05:41:00;;;;;;;14.60;5.50;;;;;;;;;;5021131;28;20103;-74
2022/10/23 05:43:29;;;;;;;15.63;4.90;;;;;;;;;;5020408;28;20117;-73
2022/10/23 05:45:56;;;;;;;19.15;5.50;;;;;;;;;;5007961;28;20053;-74
2022/10/23 05:48:23;;;;;;;14.07;5.13;;;;;;;;;;5023831;28;20479;-72
2022/10/23 05:50:49;;;;;;;14.05;5.30;;;;;;;;;;5022718;28;20418;-75
2022/10/23 05:53:15;;;;;;;18.13;5.70;;;;;;;;;;5019252;28;20049;-74
2022/10/23 05:55:40;;;;;;;14.55;5.40;;;;;;;;;;5019584;28;20141;-73
2022/10/23 05:58:06;;;;;;;22.42;6.30;;;;;;;;;;5004006;28;20038;-72
2022/10/23 06:00:32;;;;;;;17.90;5.88;;;;;;;;;;5023764;28;20053;-74
2022/10/23 06:02:59;;;;;;;18.88;5.65;;;;;;;;;;5024662;28;20037;-75
2022/10/23 06:05:25;;;;;;;16.02;5.68;;;;;;;;;;5024958;28;20050;-77
2022/10/23 06:07:51;;;;;;;20.30;5.60;;;;;;;;;;5030695;28;20069;-74
2022/10/23 06:10:17;;;;;;;16.25;6.10;;;;;;;;;;5020636;28;20053;-72
2022/10/23 06:12:43;;;;;;;16.13;6.18;;;;;;;;;;5025024;28;20037;-75
2022/10/23 06:15:09;;;;;;;16.02;5.85;;;;;;;;;;5025395;28;20523;-74
2022/10/23 06:17:35;;;;;;;19.75;6.82;;;;;;;;;;5021193;28;20076;-75
2022/10/23 06:20:01;;;;;;;19.27;6.35;;;;;;;;;;5022127;28;20416;-74
2022/10/23 06:22:28;;;;;;;18.80;6.20;;;;;;;;;;5020296;28;20404;-76
2022/10/23 06:24:54;;;;;;;15.52;6.03;;;;;;;;;;5016444;28;20051;-75
2022/10/23 06:27:21;;;;;;;10.07;5.40;;;;;;;;;;5028269;28;20411;-77
2022/10/23 06:29:46;;;;;;;15.00;5.70;;;;;;;;;;5008193;28;20033;-73
2022/10/23 06:32:13;;;;;;;16.42;5.95;;;;;;;;;;5025134;28;20107;-76
2022/10/23 06:34:39;;;;;;;15.02;5.75;;;;;;;;;;5011966;28;20128;-74
2022/10/23 06:37:05;;;;;;;18.92;6.43;;;;;;;;;;5028978;28;20051;-74
2022/10/23 06:39:31;;;;;;;18.75;6.03;;;;;;;;;;5033088;28;20125;-73
2022/10/23 06:41:57;;;;;;;19.95;5.85;;;;;;;;;;5024662;28;20061;-74
2022/10/23 06:44:23;;;;;;;17.67;6.47;;;;;;;;;;5012943;28;20049;-74
2022/10/23 06:46:50;;;;;;;21.85;6.18;;;;;;;;;;5021689;28;20049;-74
2022/10/23 06:49:16;;;;;;;22.92;6.40;;;;;;;;;;5027606;28;20041;-75
2022/10/23 06:51:42;;;;;;;19.42;7.10;;;;;;;;;;5027382;28;20519;-77
2022/10/23 06:54:12;;;;;;;25.70;6.38;;;;;;;;;;5037644;28;20431;-81
2022/10/23 06:56:38;;;;;;;17.83;6.13;;;;;;;;;;5015707;28;20042;-80
2022/10/23 06:59:08;;;;;;;17.45;6.53;;;;;;;;;;5002244;28;20045;-81
2022/10/23 07:01:38;;;;;;;14.68;6.05;;;;;;;;;;5006614;28;20356;-81
2022/10/23 07:04:17;;;;;;;21.90;6.35;;;;;;;;;;5023141;28;20041;-79
2022/10/23 07:06:43;;;;;;;15.68;5.85;;;;;;;;;;5016238;28;20049;-79
2022/10/23 07:09:12;;;;;;;21.50;6.47;;;;;;;;;;5016435;28;20046;-80
2022/10/23 07:11:41;;;;;;;17.88;6.43;;;;;;;;;;5018594;28;20046;-80
2022/10/23 07:14:20;;;;;;;17.88;5.95;;;;;;;;;;5001257;28;20057;-80
2022/10/23 07:16:52;;;;;;;23.20;6.85;;;;;;;;;;5009961;28;20092;-79
2022/10/23 07:19:19;;;;;;;15.43;6.22;;;;;;;;;;5013834;28;20069;-80
2022/10/23 07:21:55;;;;;;;13.57;5.85;;;;;;;;;;5022255;28;20045;-78
2022/10/23 07:24:27;;;;;;;19.40;6.28;;;;;;;;;;5003608;28;20552;-79
2022/10/23 07:26:53;;;;;;;21.52;7.32;;;;;;;;;;5015223;28;20479;-79
2022/10/23 07:29:19;;;;;;;19.05;7.47;;;;;;;;;;5007466;28;20059;-70
2022/10/23 07:31:45;;;;;;;20.05;8.35;;;;;;;;;;5001368;28;20057;-72
2022/10/23 07:34:12;;;;;;;23.63;7.68;;;;;;;;;;5004165;28;20046;-74
2022/10/23 07:36:38;;;;;;;18.58;7.30;;;;;;;;;;5006369;28;20077;-71
2022/10/23 07:39:04;;;;;;;25.55;9.65;;;;;;;;;;5003526;28;20321;-72
2022/10/23 07:41:30;;;;;;;17.70;6.88;;;;;;;;;;4991911;28;20045;-71
2022/10/23 07:43:56;;;;;;;25.15;7.32;;;;;;;;;;5006685;28;20046;-72
2022/10/23 07:46:22;;;;;;;22.30;6.95;;;;;;;;;;5000596;28;20347;-70
2022/10/23 07:48:48;;;;;;;18.02;6.47;;;;;;;;;;5010225;28;20042;-72
2022/10/23 07:51:15;;;;;;;19.75;6.75;;;;;;;;;;5006302;28;20163;-71
2022/10/23 07:53:42;;;;;;;14.30;7.35;;;;;;;;;;5008266;28;20053;-72
2022/10/23 07:56:22;;;;;;;17.65;7.75;;;;;;;;;;5008616;28;20042;-71
2022/10/23 07:58:52;;;;;;;21.70;9.35;;;;;;;;;;5007960;28;20120;-77
2022/10/23 08:01:20;;;;;;;22.05;9.55;;;;;;;;;;5012495;28;20062;-76
2022/10/23 08:03:46;;;;;;;18.25;6.75;;;;;;;;;;5015439;28;20141;-71
2022/10/23 08:06:12;;;;;;;24.38;7.32;;;;;;;;;;4993779;28;20097;-73
2022/10/23 08:08:38;;;;;;;19.70;7.40;;;;;;;;;;5010139;28;20056;-72
2022/10/23 08:11:04;;;;;;;22.60;7.28;;;;;;;;;;5011685;28;20049;-74
2022/10/23 08:13:30;;;;;;;21.40;7.47;;;;;;;;;;5011801;28;20057;-75
2022/10/23 08:15:57;;;;;;;20.52;6.97;;;;;;;;;;5009687;28;20050;-72
2022/10/23 08:18:23;;;;;;;23.55;7.95;;;;;;;;;;5007665;28;20525;-71
2022/10/23 08:20:51;;;;;;;24.33;7.97;;;;;;;;;;5008623;28;20041;-72
2022/10/23 08:23:18;;;;;;;15.52;6.70;;;;;;;;;;5008709;28;20050;-73
2022/10/23 08:25:45;;;;;;;23.38;7.82;;;;;;;;;;5009823;28;20048;-73
2022/10/23 08:28:11;;;;;;;20.55;7.88;;;;;;;;;;5005998;28;20056;-74
2022/10/23 08:30:37;;;;;;;17.48;7.47;;;;;;;;;;5004240;28;21150;-78
2022/10/23 08:33:04;;;;;;;14.82;7.10;;;;;;;;;;5010461;28;20136;-75
2022/10/23 08:35:36;;;;;;;20.73;7.30;;;;;;;;;;5014119;28;20136;-73
2022/10/23 08:38:04;;;;;;;18.92;7.53;;;;;;;;;;4984601;28;20082;-77
2022/10/23 08:40:30;;;;;;;19.73;7.45;;;;;;;;;;5017070;28;20477;-71
2022/10/23 08:43:01;;;;;;;17.73;7.38;;;;;;;;;;4984729;28;20049;-76
2022/10/23 08:45:37;;;;;;;28.42;7.50;;;;;;;;;;4996919;28;20041;-72
2022/10/23 08:48:32;;;;;;;22.05;7.65;;;;;;;;;;5008593;28;20051;-73
2022/10/23 08:51:21;;;;;;;17.27;7.32;;;;;;;;;;4995347;28;20046;-74
2022/10/23 08:54:02;;;;;;;20.88;7.68;;;;;;;;;;5000124;28;20163;-72
2022/10/23 08:56:34;;;;;;;21.50;8.27;;;;;;;;;;4977768;28;20060;-73
2022/10/23 08:59:21;;;;;;;25.13;10.65;;;;;;;;;;5014838;28;20498;-73
2022/10/23 09:02:07;;;;;;;28.17;8.68;;;;;;;;;;5009970;28;20053;-72
2022/10/23 09:04:34;;;;;;;20.50;7.43;;;;;;;;;;4998773;28;20088;-74
2022/10/23 09:07:07;;;;;;;25.00;7.47;;;;;;;;;;5014805;28;20049;-73
2022/10/23 09:09:53;;;;;;;16.63;7.77;;;;;;;;;;4998828;28;20120;-74
2022/10/23 09:12:24;;;;;;;16.77;7.28;;;;;;;;;;5011930;28;20132;-75
2022/10/23 09:15:17;;;;;;;15.88;6.78;;;;;;;;;;5017579;28;20338;-77
2022/10/23 09:17:44;;;;;;;19.02;7.68;;;;;;;;;;5011890;28;20053;-75
2022/10/23 09:20:16;;;;;;;17.33;6.97;;;;;;;;;;5014082;28;21085;-72
2022/10/23 09:22:43;;;;;;;23.85;6.78;;;;;;;;;;5000285;28;20049;-72
2022/10/23 09:25:15;;;;;;;20.45;8.10;;;;;;;;;;5016208;28;20054;-75
2022/10/23 09:27:47;;;;;;;25.05;7.80;;;;;;;;;;5016977;28;20503;-76
2022/10/23 09:30:35;;;;;;;17.02;6.68;;;;;;;;;;5018720;28;20133;-78
2022/10/23 09:33:23;;;;;;;27.95;7.35;;;;;;;;;;5033666;28;20101;-73
2022/10/23 09:36:03;;;;;;;20.55;7.35;;;;;;;;;;5001028;28;20053;-72
2022/10/23 09:38:48;;;;;;;22.50;7.57;;;;;;;;;;5000119;28;20156;-72
2022/10/23 09:41:23;;;;;;;28.65;7.47;;;;;;;;;;5010996;28;20073;-82
2022/10/23 09:44:07;;;;;;;22.00;7.00;;;;;;;;;;5030590;28;20034;-82
2022/10/23 09:46:42;;;;;;;27.90;7.70;;;;;;;;;;5023726;28;20108;-79
2022/10/23 09:49:21;;;;;;;;;;;;;;;;;;5015587;28;20026;-80
2022/10/23 09:52:11;;;;;;;22.02;6.90;;;;;;;;;;5012562;28;20803;-73
2022/10/23 09:54:44;;;;;;;23.98;7.50;;;;;;;;;;5012139;28;20665;-74
2022/10/23 09:57:42;;;;;;;24.80;7.63;;;;;;;;;;5011896;28;20123;-74
2022/10/23 10:00:22;;;;;;;26.15;7.38;;;;;;;;;;5002456;28;20066;-73
2022/10/23 10:03:05;;;;;;;24.17;7.07;;;;;;;;;;4996713;28;20061;-74
2022/10/23 10:05:40;;;;;;;19.80;7.05;;;;;;;;;;5012916;28;20438;-76
2022/10/23 10:08:34;;;;;;;17.30;7.55;;;;;;;;;;5008548;28;20148;-75
2022/10/23 10:11:05;;;;;;;20.85;7.13;;;;;;;;;;5003663;28;20434;-76
2022/10/23 10:13:31;;;;;;;25.17;7.85;;;;;;;;;;5015465;28;20049;-74
2022/10/23 10:16:02;;;;;;;20.20;6.90;;;;;;;;;;5001725;28;20064;-74
2022/10/23 10:19:07;;;;;;;27.85;7.65;;;;;;;;;;5011920;28;20081;-74
2022/10/23 10:21:37;;;;;;;;;;;;;;;;;;4918324;29;20055;-73
2022/10/23 10:24:33;;;;;;;25.73;7.05;;;;;;;;;;4917892;29;20006;-74
2022/10/23 10:27:33;;;;;;;23.15;7.68;;;;;;;;;;4912264;29;20070;-73
2022/10/23 10:30:14;;;;;;;22.42;7.88;;;;;;;;;;4912494;29;20048;-73
2022/10/23 10:32:46;;;;;;;28.83;8.80;;;;;;;;;;4918859;29;20067;-74
2022/10/23 10:35:15;;;;;;;32.72;8.40;;;;;;;;;;4900093;29;20061;-71
2022/10/23 10:38:03;;;;;;;30.02;8.73;;;;;;;;;;4894460;29;20223;-77
2022/10/23 10:40:37;;;;;;;23.27;8.70;;;;;;;;;;4897299;29;20059;-76
2022/10/23 10:43:14;;;;;;;38.78;8.38;;;;;;;;;;4897729;29;20056;-73
2022/10/23 10:45:47;;;;;;;29.98;7.82;;;;;;;;;;4899363;29;20852;-78
2022/10/23 10:48:41;;;;;;;23.30;7.30;;;;;;;;;;4892594;29;20175;-75
2022/10/23 10:51:18;;;;;;;28.40;7.80;;;;;;;;;;4896599;29;20084;-74
2022/10/23 10:54:02;;;;;;;27.45;7.32;;;;;;;;;;4997742;28;20965;-72
2022/10/23 10:56:32;;;;;;;22.88;6.90;;;;;;;;;;4995446;28;20082;-69
2022/10/23 10:59:10;;;;;;;21.42;6.30;;;;;;;;;;4987350;28;20077;-73
2022/10/23 11:01:41;;;;;;;23.02;6.90;;;;;;;;;;5006298;28;20072;-72
2022/10/23 11:04:33;;;;;;;23.45;6.85;;;;;;;;;;4993104;28;20041;-74
2022/10/23 11:07:04;;;;;;;26.17;7.22;;;;;;;;;;5004569;28;20082;-75
2022/10/23 11:09:30;;;;;;;29.95;8.55;;;;;;;;;;5010353;28;20065;-71
2022/10/23 11:11:56;;;;;;;28.65;8.95;;;;;;;;;;5008169;28;20085;-73
2022/10/23 11:14:27;;;;;;;27.35;9.40;;;;;;;;;;5008519;28;20049;-73
2022/10/23 11:16:58;;;;;;;27.65;8.98;;;;;;;;;;5008849;28;20547;-70
2022/10/23 11:19:28;;;;;;;24.27;8.68;;;;;;;;;;5008814;28;20125;-73
2022/10/23 11:22:11;;;;;;;25.48;9.30;;;;;;;;;;5003303;28;20060;-71
2022/10/23 11:24:52;;;;;;;27.58;9.52;;;;;;;;;;4998982;28;20058;-68
2022/10/23 11:27:56;;;;;;;33.60;9.20;;;;;;;;;;5004236;28;20132;-74
2022/10/23 11:30:39;;;;;;;29.90;9.48;;;;;;;;;;5000629;28;20520;-73
2022/10/23 11:33:24;;;;;;;29.17;9.35;;;;;;;;;;5011370;28;20137;-72
2022/10/23 11:36:03;;;;;;;27.00;8.73;;;;;;;;;;5017727;28;20435;-73
2022/10/23 11:38:30;;;;;;;27.33;9.45;;;;;;;;;;5031845;28;20049;-74
2022/10/23 11:41:05;;;;;;;32.08;9.55;;;;;;;;;;5023769;28;20119;-70
2022/10/23 11:43:34;;;;;;;37.72;10.23;;;;;;;;;;4997735;28;20046;-72
2022/10/23 11:46:38;;;;;;;27.02;9.27;;;;;;;;;;5016031;28;20120;-74
2022/10/23 11:49:19;;;;;;;29.50;9.77;;;;;;;;;;4952989;29;20067;-73
2022/10/23 11:51:45;;;;;;;28.27;9.93;;;;;;;;;;4946588;29;20532;-73
2022/10/23 11:54:14;;;;;;;28.05;9.93;;;;;;;;;;4942334;29;20076;-75
2022/10/23 11:57:07;;;;;;;30.08;8.38;;;;;;;;;;4946677;29;20059;-73
2022/10/23 11:59:40;;;;;;;31.38;8.82;;;;;;;;;;4947466;29;20067;-72
2022/10/23 12:02:31;;;;;;;40.67;9.33;;;;;;;;;;4946205;28;20655;-72
2022/10/23 12:05:07;;;;;;;25.38;9.05;;;;;;;;;;4940438;29;20063;-72
2022/10/23 12:07:37;;;;;;;22.15;7.78;;;;;;;;;;4947900;29;20051;-72
2022/10/23 12:10:19;;;;;;;24.20;8.82;;;;;;;;;;4936577;29;20524;-72
2022/10/23 12:12:57;;;;;;;28.65;8.55;;;;;;;;;;4947887;29;20082;-73
2022/10/23 12:15:25;;;;;;;29.30;8.23;;;;;;;;;;4948875;28;20202;-73
2022/10/23 12:17:53;;;;;;;36.35;7.75;;;;;;;;;;4939063;28;20055;-73
2022/10/23 12:20:43;;;;;;;26.50;8.80;;;;;;;;;;5000498;28;20038;-72
2022/10/23 12:24:04;;;;;;;29.20;8.20;;;;;;;;;;5021651;28;20109;-73
2022/10/23 12:26:33;;;;;;;26.83;7.80;;;;;;;;;;5008808;28;20128;-71
2022/10/23 12:29:27;;;;;;;22.27;7.22;;;;;;;;;;5024974;28;20049;-72
2022/10/23 12:32:11;;;;;;;21.30;7.55;;;;;;;;;;5026159;28;20466;-72
2022/10/23 12:35:17;;;;;;;25.00;8.18;;;;;;;;;;5021613;28;20105;-70
2022/10/23 12:38:03;;;;;;;25.02;7.25;;;;;;;;;;5019830;28;20057;-73
2022/10/23 12:40:29;;;;;;;27.05;8.13;;;;;;;;;;5030232;28;20098;-74
2022/10/23 12:42:58;;;;;;;38.92;8.25;;;;;;;;;;5001120;28;20046;-73
2022/10/23 12:45:24;;;;;;;23.50;7.72;;;;;;;;;;5017199;28;20057;-71
2022/10/23 12:47:51;;;;;;;25.77;7.65;;;;;;;;;;5029092;28;20733;-74
2022/10/23 12:50:21;;;;;;;31.13;8.20;;;;;;;;;;5023505;28;20038;-73
2022/10/23 12:52:55;;;;;;;25.55;7.95;;;;;;;;;;5003932;28;20046;-73
2022/10/23 12:55:24;;;;;;;19.98;7.45;;;;;;;;;;4994559;28;20543;-72
2022/10/23 12:57:50;;;;;;;27.45;8.07;;;;;;;;;;4995230;28;20495;-71
2022/10/23 13:00:23;;;;;;;23.02;8.13;;;;;;;;;;5027797;28;20557;-72
2022/10/23 13:03:02;;;;;;;28.45;8.15;;;;;;;;;;5018866;28;20084;-72
2022/10/23 13:05:30;;;;;;;25.88;7.88;;;;;;;;;;5025825;28;20399;-72
2022/10/23 13:07:58;;;;;;;26.58;7.55;;;;;;;;;;5014539;28;20418;-73
2022/10/23 13:10:27;;;;;;;23.52;8.25;;;;;;;;;;5028671;28;20052;-71
2022/10/23 13:13:00;;;;;;;24.10;8.10;;;;;;;;;;5017326;28;20045;-76
2022/10/23 13:15:39;;;;;;;28.70;8.27;;;;;;;;;;5028972;28;20053;-71
2022/10/23 13:18:06;;;;;;;27.05;8.70;;;;;;;;;;5017384;28;20049;-71
2022/10/23 13:21:02;;;;;;;27.38;8.02;;;;;;;;;;5015070;28;20057;-72
2022/10/23 13:23:34;;;;;;;24.00;7.68;;;;;;;;;;5010843;28;20046;-72
2022/10/23 13:26:20;;;;;;;31.00;7.82;;;;;;;;;;5017001;28;20414;-74
2022/10/23 13:28:47;;;;;;;25.88;7.90;;;;;;;;;;5023831;28;20049;-74
2022/10/23 13:31:12;;;;;;;20.40;7.60;;;;;;;;;;4991998;28;20083;-73
2022/10/23 13:33:39;;;;;;;24.23;7.47;;;;;;;;;;5009694;28;20042;-73
2022/10/23 13:36:21;;;;;;;25.65;8.23;;;;;;;;;;5026250;28;21208;-73
2022/10/23 13:39:13;;;;;;;20.95;7.60;;;;;;;;;;5032365;28;20077;-75
2022/10/23 13:41:44;;;;;;;21.90;7.97;;;;;;;;;;5027966;28;20054;-75
2022/10/23 13:44:13;;;;;;;30.27;8.95;;;;;;;;;;5017545;28;20068;-74
2022/10/23 13:46:39;;;;;;;26.92;8.88;;;;;;;;;;5030574;28;20505;-72
2022/10/23 13:49:06;;;;;;;21.17;8.55;;;;;;;;;;5028540;28;20042;-71
2022/10/23 13:51:39;;;;;;;38.40;9.05;;;;;;;;;;5023592;28;20140;-73
2022/10/23 13:54:13;;;;;;;25.30;8.45;;;;;;;;;;5030611;28;20096;-73
2022/10/23 13:56:39;;;;;;;23.33;7.22;;;;;;;;;;5025614;28;20046;-74
2022/10/23 13:59:05;;;;;;;19.75;7.18;;;;;;;;;;5025094;28;20070;-71
2022/10/23 14:01:34;;;;;;;29.35;7.90;;;;;;;;;;5018512;28;20065;-73
2022/10/23 14:04:03;;;;;;;23.55;7.63;;;;;;;;;;5014802;28;20092;-73
2022/10/23 14:06:29;;;;;;;24.05;7.95;;;;;;;;;;5028017;28;20044;-71
2022/10/23 14:08:56;;;;;;;25.70;8.00;;;;;;;;;;5013223;28;20097;-70
2022/10/23 14:11:22;;;;;;;32.22;8.27;;;;;;;;;;5018248;28;20192;-72
2022/10/23 14:13:51;;;;;;;32.47;8.70;;;;;;;;;;5024139;28;20076;-71
2022/10/23 14:16:20;;;;;;;28.83;7.75;;;;;;;;;;5026991;28;20048;-78
2022/10/23 14:18:46;;;;;;;28.38;7.82;;;;;;;;;;5016310;28;20053;-72
2022/10/23 14:21:14;;;;;;;19.55;7.90;;;;;;;;;;5010211;28;20407;-71
2022/10/23 14:23:40;;;;;;;22.13;7.63;;;;;;;;;;4987607;28;20685;-72
2022/10/23 14:26:09;;;;;;;23.92;7.55;;;;;;;;;;5020279;28;20127;-71
2022/10/23 14:28:35;;;;;;;25.65;7.80;;;;;;;;;;5025804;28;20042;-72
2022/10/23 14:31:09;;;;;;;21.95;7.47;;;;;;;;;;5017395;28;20042;-71
2022/10/23 14:33:35;;;;;;;;;;;;;;;;;;5007123;28;20495;-73
2022/10/23 14:36:01;;;;;;;22.80;7.30;;;;;;;;;;5023812;28;19963;-72
2022/10/23 14:38:28;;;;;;;19.80;7.28;;;;;;;;;;5023725;28;20095;-72
2022/10/23 14:40:53;;;;;;;24.73;7.30;;;;;;;;;;4999274;28;20077;-74
2022/10/23 14:43:21;;;;;;;26.58;7.00;;;;;;;;;;5019368;28;20045;-72
2022/10/23 14:45:47;;;;;;;22.50;6.63;;;;;;;;;;5024062;28;20080;-75
2022/10/23 14:48:13;;;;;;;21.92;6.75;;;;;;;;;;5031876;28;20046;-74
2022/10/23 14:50:44;;;;;;;15.32;6.53;;;;;;;;;;5026048;28;20107;-73
2022/10/23 14:53:10;;;;;;;21.17;6.90;;;;;;;;;;5013767;28;20055;-72
2022/10/23 14:55:36;;;;;;;18.55;6.40;;;;;;;;;;5029902;28;20045;-72
2022/10/23 14:58:02;;;;;;;26.88;6.72;;;;;;;;;;5028321;28;20120;-70
2022/10/23 15:00:29;;;;;;;22.08;6.93;;;;;;;;;;4992155;28;20132;-75
2022/10/23 15:02:55;;;;;;;22.67;7.05;;;;;;;;;;5020872;28;20049;-72